Hauptseite
METAR-TAF:

METAR-TAF

Flughäfen :

St. George Island Airport

St. George, Alaska, Vereinigte Staaten

Breite: 56-34-43N, Länge: 169-39-41W, Höhe: 38 m

Beobachtung

Neuester Wetterbericht von vor 2 Stunden und 4 Minuten, um 03:53 UTC
Wind 14 kt aus Nord/Nordwest
Temperatur -4°C
Luftfeuchtigkeit 74%
Luftdruck 1027 hPa
Sichtweite: 16.1 km
Leicht bewölkt in der Höhe von 2800 ft
Geschlossene Wolkendecke in der Höhe von 3200 ft

METAR: PAPB 280353Z AUTO 33014KT 10SM FEW028 OVC032 M04/M08 A3032 RMK AO2 SLP254 T10441078 TSNO $

Zeit: 20:57 (05:57 UTC)


TAF: fehlend

Wetterbeobachtungen und Prognosen von mehr als 4000 Flughäfen (METAR und TAF Bericht).

Die verfügbaren Stationen werden durch gelbe und rote Markierungen auf der Karte dargestellt.

Führen Sie die Maus auf sie, um den Namen der Station zu sehen.

Darauf klicken, um die Beobachtung von Wetterbeobachtungen und Prognosen zu sehen.

Um die Karte zu ändern : klicken Sie auf den grünen Tasten mit einem schwarzen Kreuz Zum Vergrößern, auf den grünen Button mit einem Gedankenstrich zu verkleinern, oder auf die grünen Pfeile für benachbarte Karten.


METAR-TAF: